Flat, Kentucky
Current Conditions -  °F | °C
As of 9:53 AM on Friday 31 Oct 2014 (Local Time) from KJKL Reporting Station
Light Rain Light Rain  
Wind Chill: 40°   Ceiling: 3800
Heat Index: 40°   Visibility: 6mi
Dew Point: 37°   Wind: 0mph
Humidity: 89%   Direction: NA
Pressure: 29.98"   Gusts: NA
Location:  37.7524°N, 83.5047°W
Report Text: KJKL 311353Z AUTO 00000KT 6SM -RA BR OVC038 04/03 A2998 RMK AO2 SLP154 P0001 T00440028
Loading
Personal Weather Stations






























Interactive Weather Map
Tropical Storm Tracking
New forecast layout! Learn more

10-Day Weather Forecast

Advertisements
Track Severe Weather on mobile